Time,TemperatureF,DewpointF,PressureIn,WindDirection,WindDirectionDegrees,WindSpeedMPH,WindSpeedGustMPH,Humidity,HourlyPrecipIn,Conditions,Clouds,dailyrainin,SoftwareType,DateUTC
2013-02-20 00:00:00,16.5,11.4,29.94,West,262,13.0,20.0,80,0.00,,---,0.23,VWS V14.01,2013-02-20 05:00:00,
2013-02-20 00:01:00,16.5,11.4,29.94,West,276,7.0,20.0,80,0.00,,---,0.23,VWS V14.01,2013-02-20 05:01:00,
2013-02-20 00:06:00,16.4,11.0,29.94,WSW,250,8.0,14.0,79,0.00,,---,0.00,VWS V14.01,2013-02-20 05:06:00,
2013-02-20 00:11:00,16.4,11.0,29.94,West,271,10.0,18.0,79,0.00,,---,0.00,VWS V14.01,2013-02-20 05:11:00,
2013-02-20 00:16:00,16.3,10.9,29.95,West,276,10.0,18.0,79,0.00,,---,0.00,VWS V14.01,2013-02-20 05:16:00,
2013-02-20 00:21:00,16.3,10.9,29.95,WSW,252,10.0,18.0,79,0.00,,---,0.00,VWS V14.01,2013-02-20 05:21:00,
2013-02-20 00:27:00,16.2,10.8,29.95,WSW,250,9.0,18.0,79,0.00,,---,0.00,VWS V14.01,2013-02-20 05:27:00,
2013-02-20 00:32:00,16.2,10.8,29.95,WSW,242,11.0,18.0,79,0.00,,---,0.00,VWS V14.01,2013-02-20 05:32:00,
2013-02-20 00:37:00,16.2,10.8,29.95,WSW,256,11.0,21.0,79,0.00,,---,0.00,VWS V14.01,2013-02-20 05:37:00,
2013-02-20 00:42:00,16.2,11.1,29.96,WNW,289,6.0,21.0,80,0.00,,---,0.00,VWS V14.01,2013-02-20 05:42:00,
2013-02-20 00:47:00,16.2,11.1,29.96,West,270,17.0,21.0,80,0.00,,---,0.00,VWS V14.01,2013-02-20 05:47:00,
2013-02-20 00:52:00,16.2,11.4,29.96,West,269,10.0,21.0,81,0.00,,---,0.00,VWS V14.01,2013-02-20 05:52:00,
2013-02-20 00:57:00,16.2,11.4,29.96,West,270,8.0,21.0,81,0.00,,---,0.00,VWS V14.01,2013-02-20 05:57:00,
2013-02-20 01:02:00,16.2,11.4,29.96,WNW,283,6.0,12.0,81,0.00,,---,0.00,VWS V14.01,2013-02-20 06:02:00,
2013-02-20 01:07:00,16.1,11.6,29.96,West,274,11.0,12.0,82,0.00,,---,0.00,VWS V14.01,2013-02-20 06:07:00,
2013-02-20 01:13:00,16.1,11.6,29.97,West,262,6.0,17.0,82,0.00,,---,0.00,VWS V14.01,2013-02-20 06:13:00,
2013-02-20 01:18:00,16.0,11.8,29.97,WSW,257,8.0,17.0,83,0.00,,---,0.00,VWS V14.01,2013-02-20 06:18:00,
2013-02-20 01:23:00,16.0,12.0,29.97,West,266,12.0,17.0,84,0.00,,---,0.00,VWS V14.01,2013-02-20 06:23:00,
2013-02-20 01:28:00,16.0,12.0,29.97,West,260,8.0,17.0,84,0.00,,---,0.00,VWS V14.01,2013-02-20 06:28:00,
2013-02-20 01:33:00,16.0,12.0,29.97,West,281,11.0,17.0,84,0.00,,---,0.00,VWS V14.01,2013-02-20 06:33:00,
2013-02-20 01:38:00,16.0,12.3,29.97,West,276,5.0,17.0,85,0.00,,---,0.00,VWS V14.01,2013-02-20 06:38:00,
2013-02-20 01:43:00,16.0,12.3,29.98,West,262,5.0,17.0,85,0.00,,---,0.00,VWS V14.01,2013-02-20 06:43:00,
2013-02-20 01:48:00,16.0,12.6,29.98,West,263,9.0,17.0,86,0.00,,---,0.00,VWS V14.01,2013-02-20 06:48:00,
2013-02-20 01:54:00,16.0,12.6,29.98,West,277,10.0,17.0,86,0.00,,---,0.00,VWS V14.01,2013-02-20 06:54:00,
2013-02-20 01:59:00,16.0,12.6,29.98,West,268,9.0,17.0,86,0.00,,---,0.00,VWS V14.01,2013-02-20 06:59:00,
2013-02-20 02:04:00,16.0,12.6,29.98,WNW,285,6.0,10.0,86,0.00,,---,0.00,VWS V14.01,2013-02-20 07:04:00,
2013-02-20 02:09:00,16.1,12.7,29.98,West,259,7.0,14.0,86,0.00,,---,0.00,VWS V14.01,2013-02-20 07:09:00,
2013-02-20 02:14:00,16.1,12.4,29.98,West,271,10.0,15.0,85,0.00,,---,0.00,VWS V14.01,2013-02-20 07:14:00,
2013-02-20 02:19:00,16.2,12.5,29.98,WNW,284,9.0,15.0,85,0.00,,---,0.00,VWS V14.01,2013-02-20 07:19:00,
2013-02-20 02:24:00,16.2,12.5,29.98,WSW,240,7.0,17.0,85,0.00,,---,0.00,VWS V14.01,2013-02-20 07:24:00,
2013-02-20 02:29:00,16.2,12.2,29.99,WNW,284,15.0,17.0,84,0.00,,---,0.00,VWS V14.01,2013-02-20 07:29:00,
2013-02-20 02:34:00,16.2,12.2,29.99,WSW,243,7.0,17.0,84,0.00,,---,0.00,VWS V14.01,2013-02-20 07:34:00,
2013-02-20 02:39:00,16.2,12.2,29.99,WSW,256,13.0,17.0,84,0.00,,---,0.00,VWS V14.01,2013-02-20 07:39:00,
2013-02-20 02:45:00,16.2,12.2,29.99,West,277,10.0,17.0,84,0.00,,---,0.00,VWS V14.01,2013-02-20 07:45:00,
2013-02-20 02:50:00,16.2,12.2,29.99,West,272,9.0,17.0,84,0.00,,---,0.00,VWS V14.01,2013-02-20 07:50:00,
2013-02-20 02:55:00,16.1,12.4,29.99,West,262,10.0,17.0,85,0.00,,---,0.00,VWS V14.01,2013-02-20 07:55:00,
2013-02-20 03:00:00,16.1,12.4,30.00,West,281,8.0,17.0,85,0.00,,---,0.00,VWS V14.01,2013-02-20 08:00:00,
2013-02-20 03:05:00,16.0,12.6,30.00,West,264,6.0,13.0,86,0.00,,---,0.00,VWS V14.01,2013-02-20 08:05:00,
2013-02-20 03:10:00,16.0,12.3,30.00,West,273,11.0,15.0,85,0.00,,---,0.00,VWS V14.01,2013-02-20 08:10:00,
2013-02-20 03:15:00,16.0,12.3,30.00,West,259,10.0,15.0,85,0.00,,---,0.00,VWS V14.01,2013-02-20 08:15:00,
2013-02-20 03:20:00,15.9,12.5,30.00,West,273,9.0,15.0,86,0.00,,---,0.00,VWS V14.01,2013-02-20 08:20:00,
2013-02-20 03:25:00,15.9,12.5,30.00,WNW,301,9.0,15.0,86,0.00,,---,0.00,VWS V14.01,2013-02-20 08:25:00,
2013-02-20 03:31:00,15.9,12.5,30.00,West,280,9.0,16.0,86,0.00,,---,0.00,VWS V14.01,2013-02-20 08:31:00,
2013-02-20 03:36:00,15.9,12.7,30.00,WNW,286,6.0,16.0,87,0.00,,---,0.00,VWS V14.01,2013-02-20 08:36:00,
2013-02-20 03:41:00,15.8,12.6,30.00,West,272,5.0,16.0,87,0.00,,---,0.00,VWS V14.01,2013-02-20 08:41:00,
2013-02-20 03:46:00,15.9,12.5,30.01,West,266,8.0,16.0,86,0.00,,---,0.00,VWS V14.01,2013-02-20 08:46:00,
2013-02-20 03:51:00,15.9,12.5,30.01,WNW,297,6.0,16.0,86,0.00,,---,0.00,VWS V14.01,2013-02-20 08:51:00,
2013-02-20 03:56:00,15.8,10.5,30.02,NNW,333,5.0,20.0,79,0.00,,---,0.00,VWS V14.01,2013-02-20 08:56:00,
2013-02-20 04:01:00,15.9,9.7,30.02,WNW,299,7.0,20.0,76,0.00,,---,0.00,VWS V14.01,2013-02-20 09:01:00,
2013-02-20 04:06:00,15.9,9.4,30.02,WNW,299,9.0,16.0,75,0.00,,---,0.00,VWS V14.01,2013-02-20 09:06:00,
2013-02-20 04:11:00,15.9,9.1,30.02,WNW,287,5.0,16.0,74,0.00,,---,0.00,VWS V14.01,2013-02-20 09:11:00,
2013-02-20 04:16:00,15.9,9.1,30.02,NW,312,5.0,17.0,74,0.00,,---,0.00,VWS V14.01,2013-02-20 09:16:00,
2013-02-20 04:21:00,15.8,8.4,30.03,WNW,297,9.0,22.0,72,0.00,,---,0.00,VWS V14.01,2013-02-20 09:21:00,
2013-02-20 04:27:00,15.7,8.3,30.03,WSW,256,12.0,22.0,72,0.00,,---,0.00,VWS V14.01,2013-02-20 09:27:00,
2013-02-20 04:32:00,15.7,8.3,30.03,WNW,285,15.0,22.0,72,0.00,,---,0.00,VWS V14.01,2013-02-20 09:32:00,
2013-02-20 04:37:00,15.6,9.4,30.03,West,267,11.0,22.0,76,0.00,,---,0.00,VWS V14.01,2013-02-20 09:37:00,
2013-02-20 04:42:00,15.4,9.8,30.03,West,267,10.0,22.0,78,0.00,,---,0.00,VWS V14.01,2013-02-20 09:42:00,
2013-02-20 04:47:00,15.4,10.1,30.04,WNW,290,7.0,22.0,79,0.00,,---,0.00,VWS V14.01,2013-02-20 09:47:00,
2013-02-20 04:52:00,15.3,10.2,30.04,West,267,8.0,22.0,80,0.00,,---,0.00,VWS V14.01,2013-02-20 09:52:00,
2013-02-20 04:57:00,15.2,10.7,30.05,West,276,6.0,22.0,82,0.00,,---,0.00,VWS V14.01,2013-02-20 09:57:00,
2013-02-20 05:02:00,15.1,11.1,30.04,West,276,6.0,9.0,84,0.00,,---,0.00,VWS V14.01,2013-02-20 10:02:00,
2013-02-20 05:07:00,15.0,11.1,30.05,WNW,283,6.0,18.0,84,0.00,,---,0.00,VWS V14.01,2013-02-20 10:07:00,
2013-02-20 05:12:00,14.9,10.9,30.05,WSW,246,9.0,18.0,84,0.00,,---,0.00,VWS V14.01,2013-02-20 10:12:00,
2013-02-20 05:17:00,14.8,10.9,30.05,West,266,9.0,18.0,84,0.00,,---,0.00,VWS V14.01,2013-02-20 10:17:00,
2013-02-20 05:23:00,14.7,10.5,30.05,WNW,285,4.0,18.0,83,0.00,,---,0.00,VWS V14.01,2013-02-20 10:23:00,
2013-02-20 05:28:00,14.6,10.4,30.05,NW,309,1.0,18.0,83,0.00,,---,0.00,VWS V14.01,2013-02-20 10:28:00,
2013-02-20 05:33:00,14.5,10.0,30.05,West,266,6.0,18.0,82,0.00,,---,0.00,VWS V14.01,2013-02-20 10:33:00,
2013-02-20 05:38:00,14.5,9.7,30.05,WNW,284,4.0,18.0,81,0.00,,---,0.00,VWS V14.01,2013-02-20 10:38:00,
2013-02-20 05:43:00,14.6,9.6,30.06,West,269,6.0,18.0,80,0.00,,---,0.00,VWS V14.01,2013-02-20 10:43:00,
2013-02-20 05:48:00,14.6,9.6,30.06,West,273,2.0,18.0,80,0.00,,---,0.00,VWS V14.01,2013-02-20 10:48:00,
2013-02-20 05:53:00,14.7,9.4,30.06,West,278,7.0,18.0,79,0.00,,---,0.00,VWS V14.01,2013-02-20 10:53:00,
2013-02-20 05:58:00,14.8,9.5,30.07,NW,319,9.0,18.0,79,0.00,,---,0.00,VWS V14.01,2013-02-20 10:58:00,
2013-02-20 06:04:00,14.9,9.6,30.07,WSW,248,10.0,12.0,79,0.00,,---,0.00,VWS V14.01,2013-02-20 11:04:00,
2013-02-20 06:09:00,15.0,9.4,30.07,WSW,250,5.0,13.0,78,0.00,,---,0.00,VWS V14.01,2013-02-20 11:09:00,
2013-02-20 06:14:00,15.1,9.5,30.07,West,264,8.0,15.0,78,0.00,,---,0.00,VWS V14.01,2013-02-20 11:14:00,
2013-02-20 06:19:00,15.1,9.2,30.07,WNW,300,6.0,16.0,77,0.00,,---,0.00,VWS V14.01,2013-02-20 11:19:00,
2013-02-20 06:24:00,15.2,9.3,30.07,West,262,10.0,16.0,77,0.00,,---,0.00,VWS V14.01,2013-02-20 11:24:00,
2013-02-20 06:29:00,15.2,9.3,30.07,WNW,294,8.0,18.0,77,0.00,,---,0.00,VWS V14.01,2013-02-20 11:29:00,
2013-02-20 06:34:00,15.3,9.1,30.07,WNW,298,10.0,18.0,76,0.00,,---,0.00,VWS V14.01,2013-02-20 11:34:00,
2013-02-20 06:39:00,15.4,9.2,30.07,WNW,298,9.0,18.0,76,0.00,,---,0.00,VWS V14.01,2013-02-20 11:39:00,
2013-02-20 06:44:00,15.4,8.9,30.07,West,278,7.0,18.0,75,0.00,,---,0.00,VWS V14.01,2013-02-20 11:44:00,
2013-02-20 06:49:00,15.4,8.9,30.08,WSW,257,9.0,19.0,75,0.00,,---,0.00,VWS V14.01,2013-02-20 11:49:00,
2013-02-20 06:55:00,15.4,8.9,30.08,WNW,288,7.0,19.0,75,0.00,,---,0.00,VWS V14.01,2013-02-20 11:55:00,
2013-02-20 07:00:00,15.3,8.5,30.08,West,266,11.0,19.0,74,0.00,,---,0.00,VWS V14.01,2013-02-20 12:00:00,
2013-02-20 07:05:00,15.2,8.7,30.08,West,278,15.0,15.0,75,0.00,,---,0.00,VWS V14.01,2013-02-20 12:05:00,
2013-02-20 07:10:00,15.2,8.7,30.08,West,273,8.0,18.0,75,0.00,,---,0.00,VWS V14.01,2013-02-20 12:10:00,
2013-02-20 07:15:00,15.1,8.6,30.09,West,277,10.0,18.0,75,0.00,,---,0.00,VWS V14.01,2013-02-20 12:15:00,
2013-02-20 07:20:00,15.1,8.6,30.09,West,264,9.0,18.0,75,0.00,,---,0.00,VWS V14.01,2013-02-20 12:20:00,
2013-02-20 07:25:00,15.0,8.5,30.09,WSW,257,8.0,18.0,75,0.00,,---,0.00,VWS V14.01,2013-02-20 12:25:00,
2013-02-20 07:30:00,15.1,8.6,30.09,West,267,7.0,18.0,75,0.00,,---,0.00,VWS V14.01,2013-02-20 12:30:00,
2013-02-20 07:36:00,15.0,8.5,30.09,West,269,13.0,18.0,75,0.00,,---,0.00,VWS V14.01,2013-02-20 12:36:00,
2013-02-20 07:41:00,15.1,8.6,30.09,West,278,9.0,21.0,75,0.00,,---,0.00,VWS V14.01,2013-02-20 12:41:00,
2013-02-20 07:46:00,15.2,8.7,30.09,NNW,340,7.0,21.0,75,0.00,,---,0.00,VWS V14.01,2013-02-20 12:46:00,
2013-02-20 07:51:00,15.2,8.7,30.10,WNW,284,9.0,21.0,75,0.00,,---,0.00,VWS V14.01,2013-02-20 12:51:00,
2013-02-20 07:56:00,15.3,8.8,30.10,West,260,5.0,21.0,75,0.00,,---,0.00,VWS V14.01,2013-02-20 12:56:00,
2013-02-20 08:01:00,15.4,8.9,30.10,WSW,250,6.0,21.0,75,0.00,,---,0.00,VWS V14.01,2013-02-20 13:01:00,
2013-02-20 08:06:00,15.4,8.9,30.10,West,271,10.0,14.0,75,0.00,,---,0.00,VWS V14.01,2013-02-20 13:06:00,
2013-02-20 08:11:00,15.5,8.7,30.10,West,281,9.0,15.0,74,0.00,,---,0.00,VWS V14.01,2013-02-20 13:11:00,
2013-02-20 08:16:00,15.6,8.8,30.11,WSW,246,13.0,18.0,74,0.00,,---,0.00,VWS V14.01,2013-02-20 13:16:00,
2013-02-20 08:21:00,15.7,8.9,30.11,NW,311,7.0,18.0,74,0.00,,---,0.00,VWS V14.01,2013-02-20 13:21:00,
2013-02-20 08:27:00,15.8,9.0,30.11,WNW,291,8.0,18.0,74,0.00,,---,0.00,VWS V14.01,2013-02-20 13:27:00,
2013-02-20 08:32:00,16.0,9.2,30.11,WNW,296,10.0,18.0,74,0.00,,---,0.00,VWS V14.01,2013-02-20 13:32:00,
2013-02-20 08:37:00,16.1,9.3,30.11,WNW,302,7.0,18.0,74,0.00,,---,0.00,VWS V14.01,2013-02-20 13:37:00,
2013-02-20 08:42:00,16.3,9.5,30.11,WSW,257,7.0,18.0,74,0.00,,---,0.00,VWS V14.01,2013-02-20 13:42:00,
2013-02-20 08:47:00,16.3,9.5,30.11,West,271,11.0,18.0,74,0.00,,---,0.00,VWS V14.01,2013-02-20 13:47:00,
2013-02-20 08:52:00,16.4,9.3,30.11,WNW,295,11.0,19.0,73,0.00,,---,0.00,VWS V14.01,2013-02-20 13:52:00,
2013-02-20 08:57:00,16.4,9.6,30.11,NW,306,8.0,20.0,74,0.00,,---,0.00,VWS V14.01,2013-02-20 13:57:00,
2013-02-20 09:02:00,16.7,9.6,30.11,NW,307,16.0,16.0,73,0.00,,---,0.00,VWS V14.01,2013-02-20 14:02:00,
2013-02-20 09:07:00,16.8,9.7,30.11,WNW,302,10.0,16.0,73,0.00,,---,0.00,VWS V14.01,2013-02-20 14:07:00,
2013-02-20 09:12:00,17.0,9.9,30.11,WNW,284,16.0,19.0,73,0.00,,---,0.00,VWS V14.01,2013-02-20 14:12:00,
2013-02-20 09:17:00,17.1,9.6,30.11,NNW,338,6.0,23.0,72,0.00,,---,0.00,VWS V14.01,2013-02-20 14:17:00,
2013-02-20 09:23:00,17.1,9.6,30.12,West,271,4.0,23.0,72,0.00,,---,0.00,VWS V14.01,2013-02-20 14:23:00,
2013-02-20 09:28:00,17.2,9.7,30.12,West,277,9.0,23.0,72,0.00,,---,0.00,VWS V14.01,2013-02-20 14:28:00,
2013-02-20 09:33:00,17.3,9.8,30.12,NW,309,9.0,23.0,72,0.00,,---,0.00,VWS V14.01,2013-02-20 14:33:00,
2013-02-20 09:38:00,17.4,9.6,30.12,West,278,14.0,23.0,71,0.00,,---,0.00,VWS V14.01,2013-02-20 14:38:00,
2013-02-20 09:43:00,17.5,9.4,30.12,NW,312,8.0,23.0,70,0.00,,---,0.00,VWS V14.01,2013-02-20 14:43:00,
2013-02-20 09:48:00,17.6,9.5,30.12,NW,307,5.0,23.0,70,0.00,,---,0.00,VWS V14.01,2013-02-20 14:48:00,
2013-02-20 09:53:00,18.0,9.9,30.12,WNW,292,11.0,23.0,70,0.00,,---,0.00,VWS V14.01,2013-02-20 14:53:00,